Terminal Aerodrome Forecast
Issued by NWS

Home | Current Version | Previous Version | Text Only | Print | Product List | Glossary On
Versions: 1 2 3 4 5 6 7 8 9 10 11 12 13 14 15 16 17 18 19
000
FTUS44 KMAF 101700
TAFINK
TAF
KINK 101720Z 1018/1118 14015G25KT P6SM SKC
     FM110200 14010KT P6SM SKC
     FM111200 13013KT P6SM SKC
     FM111600 14017G27KT P6SM SCT050 SCT250=

USA.gov is the U.S. government's official web portal to all federal, state and local government web resources and services.